Time;durP1;ratioP1;P1;durP2;ratioP2;P2;SDS_P1;SDS_P2;PMS_P1;PMS_P2;Temp;Humidity;BMP_temperature;BMP_pressure;BME280_temperature;BME280_humidity;BME280_pressure;Samples;Min_cycle;Max_cycle;Signal;HPM_P1;HPM_P2
2022/08/18 00:02:04;;;;;;;;;;;18.50;99.90;;;;;;5069349;28;19978;-86
2022/08/18 00:04:30;;;;;;;;;;;18.50;99.90;;;;;;5054260;28;20300;-88
2022/08/18 00:06:56;;;;;;;;;;;18.50;99.90;;;;;;5037432;28;19920;-87
2022/08/18 00:09:23;;;;;;;;;;;18.50;99.90;;;;;;5038480;28;19932;-87
2022/08/18 00:11:49;;;;;;;;;;;18.40;99.90;;;;;;5053336;28;19947;-79
2022/08/18 00:14:16;;;;;;;;;;;18.50;99.90;;;;;;5051620;28;19924;-84
2022/08/18 00:16:43;;;;;;;;;;;18.50;99.90;;;;;;5052938;28;19963;-83
2022/08/18 00:19:09;;;;;;;;;;;18.40;99.90;;;;;;5036580;28;19929;-83
2022/08/18 00:21:36;;;;;;;;;;;18.40;99.90;;;;;;5053856;28;19925;-84
2022/08/18 00:24:22;;;;;;;;;;;18.30;99.90;;;;;;5043886;28;19924;-83
2022/08/18 00:26:49;;;;;;;;;;;18.30;99.90;;;;;;5050225;28;20595;-82
2022/08/18 00:29:16;;;;;;;;;;;18.30;99.90;;;;;;5054394;28;20068;-82
2022/08/18 00:31:42;;;;;;;;;;;18.20;99.90;;;;;;5034506;28;19931;-82
2022/08/18 00:34:07;;;;;;;;;;;18.20;99.90;;;;;;5053011;28;19925;-86
2022/08/18 00:36:34;;;;;;;;;;;18.20;99.90;;;;;;5034119;28;19929;-85
2022/08/18 00:39:00;;;;;;;;;;;18.20;99.90;;;;;;5048486;28;19928;-83
2022/08/18 00:41:26;;;;;;;;;;;18.10;99.90;;;;;;5052130;28;19924;-85
2022/08/18 00:43:53;;;;;;;;;;;18.10;99.90;;;;;;5054819;28;19925;-84
2022/08/18 00:46:20;;;;;;;;;;;18.10;99.90;;;;;;5045765;28;19998;-83
2022/08/18 00:48:47;;;;;;;;;;;18.10;99.90;;;;;;5034244;28;19931;-82
2022/08/18 00:51:21;;;;;;;;;;;18.00;99.90;;;;;;5031831;28;20253;-81
2022/08/18 00:53:50;;;;;;;;;;;18.00;99.90;;;;;;5046553;28;19968;-82
2022/08/18 00:56:21;;;;;;;;;;;18.10;99.90;;;;;;5048045;28;20192;-83
2022/08/18 00:59:07;;;;;;;;;;;18.00;99.90;;;;;;5049270;28;19925;-82
2022/08/18 01:01:33;;;;;;;;;;;18.00;99.90;;;;;;5046162;28;19931;-81
2022/08/18 01:04:14;;;;;;;;;;;18.00;99.90;;;;;;5030658;28;19928;-80
2022/08/18 01:06:43;;;;;;;;;;;18.00;99.90;;;;;;5047563;28;19924;-83
2022/08/18 01:09:09;;;;;;;;;;;18.10;99.90;;;;;;5057819;28;20166;-82
2022/08/18 01:11:37;;;;;;;;;;;18.00;99.90;;;;;;5050093;28;19932;-82
2022/08/18 01:14:06;;;;;;;;;;;17.80;99.90;;;;;;5032884;28;19924;-83
2022/08/18 01:22:07;;;;;;;;;;;18.00;99.90;;;;;;5049004;28;20295;-86
2022/08/18 01:27:20;;;;;;;;;;;18.10;99.90;;;;;;5050908;28;20280;-84
2022/08/18 01:29:48;;;;;;;;;;;18.10;99.90;;;;;;5036778;28;19950;-85
2022/08/18 01:32:18;;;;;;;;;;;18.10;99.90;;;;;;5049073;28;19924;-83
2022/08/18 01:34:46;;;;;;;;;;;18.00;99.90;;;;;;5050819;28;19935;-83
2022/08/18 01:37:14;;;;;;;;;;;18.00;99.90;;;;;;5054084;28;19929;-83
2022/08/18 01:39:39;;;;;;;;;;;18.00;99.90;;;;;;5033205;28;19932;-82
2022/08/18 01:42:05;;;;;;;;;;;17.90;99.90;;;;;;5049539;28;20059;-84
2022/08/18 01:44:32;;;;;;;;;;;18.00;99.90;;;;;;5016347;28;19999;-86
2022/08/18 01:46:58;;;;;;;;;;;17.90;99.90;;;;;;5046564;28;20531;-83
2022/08/18 01:49:27;;;;;;;;;;;17.90;99.90;;;;;;5017594;28;19924;-83
2022/08/18 01:51:54;;;;;;;;;;;18.00;99.90;;;;;;5039724;28;20014;-82
2022/08/18 01:54:20;;;;;;;;;;;18.10;99.90;;;;;;5046721;28;20003;-83
2022/08/18 01:56:48;;;;;;;;;;;18.00;99.90;;;;;;5045471;28;20103;-83
2022/08/18 01:59:14;;;;;;;;;;;18.10;99.90;;;;;;5043070;28;19935;-83
2022/08/18 02:01:42;;;;;;;;;;;18.10;99.90;;;;;;5065088;28;19927;-83
2022/08/18 02:04:08;;;;;;;;;;;18.10;99.90;;;;;;5048989;28;19982;-85
